createdAt,value
2024-02-21T00:00:54.845Z,9.90
2024-02-21T00:01:54.795Z,9.88
2024-02-21T00:02:56.122Z,9.88
2024-02-21T00:03:54.780Z,9.86
2024-02-21T00:04:54.902Z,9.86
2024-02-21T00:05:54.749Z,9.86
2024-02-21T00:06:54.718Z,9.86
2024-02-21T00:07:54.743Z,9.85
2024-02-21T00:08:54.756Z,9.85
2024-02-21T00:09:54.678Z,9.84
2024-02-21T00:10:54.786Z,9.84
2024-02-21T00:11:54.701Z,9.85
2024-02-21T00:12:54.655Z,9.85
2024-02-21T00:13:54.739Z,9.84
2024-02-21T00:14:54.649Z,9.86
2024-02-21T00:15:54.635Z,9.87
2024-02-21T00:16:54.693Z,9.89
2024-02-21T00:17:54.662Z,9.88
2024-02-21T00:18:54.642Z,9.89
2024-02-21T00:19:54.635Z,9.91
2024-02-21T00:20:54.562Z,9.92
2024-02-21T00:21:54.560Z,9.93
2024-02-21T00:22:54.635Z,9.92
2024-02-21T00:23:54.539Z,9.93
2024-02-21T00:24:54.521Z,9.95
2024-02-21T00:25:54.519Z,9.95
2024-02-21T00:26:54.505Z,9.97
2024-02-21T00:27:54.494Z,9.96
2024-02-21T00:28:54.723Z,9.99
2024-02-21T00:29:54.464Z,9.99
2024-02-21T00:30:54.456Z,9.98
2024-02-21T00:31:54.480Z,9.98
2024-02-21T00:32:54.556Z,9.98
2024-02-21T00:33:54.451Z,9.99
2024-02-21T00:34:54.472Z,9.98
2024-02-21T00:35:54.446Z,9.98
2024-02-21T00:36:54.400Z,9.98
2024-02-21T00:37:54.493Z,9.97
2024-02-21T00:38:54.377Z,9.96
2024-02-21T00:39:54.401Z,9.97
2024-02-21T00:40:54.448Z,9.95
2024-02-21T00:41:54.349Z,9.94
2024-02-21T00:42:54.356Z,9.95
2024-02-21T00:43:54.391Z,9.96
2024-02-21T00:44:54.312Z,9.96
2024-02-21T00:45:54.360Z,9.95
2024-02-21T00:46:54.509Z,9.97
2024-02-21T00:47:54.389Z,9.96
2024-02-21T00:48:54.393Z,9.96
2024-02-21T00:49:54.416Z,9.96
2024-02-21T00:50:54.242Z,9.97
2024-02-21T00:51:54.287Z,9.96
2024-02-21T00:52:54.287Z,9.96
2024-02-21T00:53:54.235Z,9.95
2024-02-21T00:54:55.106Z,9.96
2024-02-21T00:55:54.293Z,9.95
2024-02-21T00:56:54.206Z,9.96
2024-02-21T00:57:54.176Z,9.96
2024-02-21T00:58:54.265Z,9.94
2024-02-21T00:59:54.149Z,9.94
2024-02-21T01:00:54.187Z,9.92
2024-02-21T01:01:54.161Z,9.94
2024-02-21T01:02:54.448Z,9.92
2024-02-21T01:03:54.136Z,9.91
2024-02-21T01:04:54.151Z,9.92
2024-02-21T01:05:54.157Z,9.93
2024-02-21T01:06:54.104Z,9.91
2024-02-21T01:07:54.127Z,9.91
2024-02-21T01:08:54.064Z,9.92
2024-02-21T01:09:54.112Z,9.92
2024-02-21T01:10:54.161Z,9.92
2024-02-21T01:11:54.087Z,9.92
2024-02-21T01:12:54.033Z,9.91
2024-02-21T01:13:54.135Z,9.90
2024-02-21T01:14:54.035Z,9.89
2024-02-21T01:15:54.001Z,9.90
2024-02-21T01:16:54.036Z,9.90
2024-02-21T01:17:54.087Z,9.90
2024-02-21T01:18:53.979Z,9.90
2024-02-21T01:19:54.036Z,9.90
2024-02-21T01:20:53.927Z,9.90
2024-02-21T01:21:54.000Z,9.93
2024-02-21T01:22:54.053Z,9.91
2024-02-21T01:23:53.906Z,9.92
2024-02-21T01:24:53.885Z,9.94
2024-02-21T01:25:53.925Z,9.94
2024-02-21T01:26:53.869Z,9.93
2024-02-21T01:27:53.859Z,9.94
2024-02-21T01:28:53.967Z,9.95
2024-02-21T01:29:53.845Z,9.94
2024-02-21T01:30:53.857Z,9.96
2024-02-21T01:31:53.875Z,9.96
2024-02-21T01:32:53.831Z,9.96
2024-02-21T01:33:53.794Z,9.98
2024-02-21T01:34:54.003Z,9.97
2024-02-21T01:35:53.928Z,9.99
2024-02-21T01:36:53.799Z,9.99
2024-02-21T01:37:53.779Z,10.01
2024-02-21T01:38:53.748Z,10.01
2024-02-21T01:39:53.739Z,10.02
2024-02-21T01:40:53.815Z,10.00
2024-02-21T01:41:53.726Z,10.00
2024-02-21T01:42:53.761Z,10.01
2024-02-21T01:43:53.878Z,10.02
2024-02-21T01:44:53.677Z,10.02
2024-02-21T01:45:53.672Z,10.01
2024-02-21T01:46:53.806Z,10.01
2024-02-21T01:47:53.771Z,10.01
2024-02-21T01:48:53.648Z,10.02
2024-02-21T01:49:53.674Z,10.01
2024-02-21T01:50:53.639Z,10.00
2024-02-21T01:51:53.629Z,10.00
2024-02-21T01:52:53.664Z,10.01
2024-02-21T01:54:01.131Z,10.00
2024-02-21T01:54:53.567Z,9.96
2024-02-21T01:55:53.585Z,9.94
2024-02-21T01:56:53.554Z,9.95
2024-02-21T01:57:53.553Z,9.92
2024-02-21T01:58:53.583Z,9.96
2024-02-21T01:59:53.547Z,9.95
2024-02-21T02:00:53.502Z,9.96
2024-02-21T02:01:53.567Z,9.95
2024-02-21T02:02:53.483Z,9.97
2024-02-21T02:03:53.498Z,9.97
2024-02-21T02:04:53.520Z,9.99
2024-02-21T02:05:53.485Z,9.98
2024-02-21T02:06:53.500Z,9.98
2024-02-21T02:07:53.499Z,9.99
2024-02-21T02:08:53.444Z,9.98
2024-02-21T02:09:53.423Z,9.99
2024-02-21T02:10:53.508Z,10.00
2024-02-21T02:11:53.498Z,9.99
2024-02-21T02:12:53.374Z,10.01
2024-02-21T02:13:53.491Z,10.01
2024-02-21T02:14:53.362Z,10.01
2024-02-21T02:15:53.344Z,10.02
2024-02-21T02:16:53.398Z,10.00
2024-02-21T02:17:53.400Z,10.01
2024-02-21T02:18:53.400Z,10.02
2024-02-21T02:19:53.370Z,10.02
2024-02-21T02:20:53.422Z,10.04
2024-02-21T02:21:53.298Z,10.04
2024-02-21T02:22:53.396Z,10.05
2024-02-21T02:23:53.287Z,10.06
2024-02-21T02:24:53.251Z,10.05
2024-02-21T02:25:53.498Z,10.07
2024-02-21T02:26:53.270Z,10.05
2024-02-21T02:27:53.231Z,10.08
2024-02-21T02:28:53.326Z,10.08
2024-02-21T02:29:53.212Z,10.08
2024-02-21T02:30:53.189Z,10.08
2024-02-21T02:31:53.201Z,10.07
2024-02-21T02:32:53.215Z,10.09
2024-02-21T02:33:53.396Z,10.06
2024-02-21T02:34:53.232Z,10.06
2024-02-21T02:35:53.208Z,10.07
2024-02-21T02:36:53.129Z,10.05
2024-02-21T02:37:53.234Z,10.07
2024-02-21T02:38:53.105Z,10.06
2024-02-21T02:39:53.120Z,10.08
2024-02-21T02:40:53.163Z,10.07
2024-02-21T02:41:53.068Z,10.08
2024-02-21T02:42:53.105Z,10.09
2024-02-21T02:43:53.125Z,10.09
2024-02-21T02:44:53.061Z,10.07
2024-02-21T02:45:53.075Z,10.08
2024-02-21T02:46:53.094Z,10.08
2024-02-21T02:47:53.081Z,10.09
2024-02-21T02:48:53.137Z,10.10
2024-02-21T02:49:53.056Z,10.10
2024-02-21T02:50:52.984Z,10.10
2024-02-21T02:51:53.007Z,10.10
2024-02-21T02:52:53.125Z,10.10
2024-02-21T02:53:52.981Z,10.10
2024-02-21T02:54:52.998Z,10.11
2024-02-21T02:55:52.997Z,10.10
2024-02-21T02:56:52.956Z,10.11
2024-02-21T02:57:52.928Z,10.11
2024-02-21T02:58:53.048Z,10.11
2024-02-21T02:59:52.897Z,10.10
2024-02-21T03:00:52.936Z,10.09
2024-02-21T03:01:52.904Z,10.10
2024-02-21T03:02:52.913Z,10.09
2024-02-21T03:03:52.902Z,10.12
2024-02-21T03:04:52.897Z,10.09
2024-02-21T03:05:52.851Z,10.10
2024-02-21T03:06:52.836Z,10.10
2024-02-21T03:07:52.952Z,10.11
2024-02-21T03:08:52.824Z,10.11
2024-02-21T03:09:52.774Z,10.10
2024-02-21T03:10:52.884Z,10.10
2024-02-21T03:11:52.795Z,10.13
2024-02-21T03:12:52.758Z,10.12
2024-02-21T03:13:52.831Z,10.12
2024-02-21T03:14:52.743Z,10.13
2024-02-21T03:15:52.714Z,10.12
2024-02-21T03:16:52.819Z,10.13
2024-02-21T03:17:52.773Z,10.13
2024-02-21T03:18:52.711Z,10.13
2024-02-21T03:19:52.766Z,10.14
2024-02-21T03:20:52.679Z,10.13
2024-02-21T03:21:52.716Z,10.14
2024-02-21T03:22:52.712Z,10.15
2024-02-21T03:23:52.667Z,10.16
2024-02-21T03:24:52.617Z,10.15
2024-02-21T03:25:52.688Z,10.17
2024-02-21T03:26:52.627Z,10.20
2024-02-21T03:27:52.596Z,10.20
2024-02-21T03:28:52.672Z,10.20
2024-02-21T03:29:52.580Z,10.21
2024-02-21T03:30:52.628Z,10.19
2024-02-21T03:31:52.623Z,10.21
2024-02-21T03:32:52.621Z,10.20
2024-02-21T03:33:52.562Z,10.19
2024-02-21T03:34:52.563Z,10.19
2024-02-21T03:35:52.501Z,10.19
2024-02-21T03:36:52.522Z,10.18
2024-02-21T03:37:52.511Z,10.20
2024-02-21T03:38:52.472Z,10.20
2024-02-21T03:39:52.520Z,10.20
2024-02-21T03:40:52.497Z,10.20
2024-02-21T03:41:52.462Z,10.21
2024-02-21T03:42:52.455Z,10.19
2024-02-21T03:43:52.524Z,10.19
2024-02-21T03:44:52.436Z,10.19
2024-02-21T03:45:52.430Z,10.18
2024-02-21T03:46:52.440Z,10.17
2024-02-21T03:47:52.468Z,10.17
2024-02-21T03:48:52.383Z,10.17
2024-02-21T03:49:52.447Z,10.17
2024-02-21T03:50:52.346Z,10.14
2024-02-21T03:51:52.381Z,10.15
2024-02-21T03:52:52.444Z,10.15
2024-02-21T03:53:52.333Z,10.12
2024-02-21T03:54:52.348Z,10.13
2024-02-21T03:55:52.392Z,10.13
2024-02-21T03:56:52.293Z,10.12
2024-02-21T03:57:52.284Z,10.13
2024-02-21T03:58:52.397Z,10.14
2024-02-21T03:59:52.281Z,10.10
2024-02-21T04:00:52.317Z,10.12
2024-02-21T04:01:52.388Z,10.12
2024-02-21T04:02:52.260Z,10.12
2024-02-21T04:03:52.234Z,10.11
2024-02-21T04:04:52.281Z,10.10
2024-02-21T04:05:52.252Z,10.09
2024-02-21T04:06:52.206Z,10.09
2024-02-21T04:07:52.205Z,10.09
2024-02-21T04:08:52.165Z,10.07
2024-02-21T04:09:52.161Z,10.08
2024-02-21T04:10:52.208Z,10.08
2024-02-21T04:11:52.281Z,10.07
2024-02-21T04:12:52.150Z,10.07
2024-02-21T04:13:52.186Z,10.08
2024-02-21T04:14:52.127Z,10.06
2024-02-21T04:15:52.128Z,10.05
2024-02-21T04:16:52.125Z,10.05
2024-02-21T04:17:52.148Z,10.04
2024-02-21T04:18:52.084Z,10.04
2024-02-21T04:19:52.144Z,10.03
2024-02-21T04:20:52.051Z,10.03
2024-02-21T04:21:58.601Z,10.04
2024-02-21T04:22:59.633Z,9.99
2024-02-21T04:23:59.533Z,9.93
2024-02-21T04:24:58.536Z,9.87
2024-02-21T04:26:01.087Z,9.79
2024-02-21T04:26:58.519Z,9.75
2024-02-21T04:27:59.496Z,9.72
2024-02-21T04:28:52.030Z,9.66
2024-02-21T04:29:51.973Z,9.64
2024-02-21T04:30:51.954Z,9.65
2024-02-21T04:31:52.012Z,9.69
2024-02-21T04:32:51.968Z,9.73
2024-02-21T04:33:51.960Z,9.74
2024-02-21T04:34:52.098Z,9.77
2024-02-21T04:35:51.899Z,9.77
2024-02-21T04:36:51.899Z,9.80
2024-02-21T04:37:51.922Z,9.80
2024-02-21T04:38:51.868Z,9.82
2024-02-21T04:39:51.985Z,9.81
2024-02-21T04:40:51.907Z,9.83
2024-02-21T04:41:51.852Z,9.84
2024-02-21T04:42:51.824Z,9.84
2024-02-21T04:43:51.835Z,9.83
2024-02-21T04:44:51.794Z,9.84
2024-02-21T04:45:51.797Z,9.84
2024-02-21T04:46:51.875Z,9.83
2024-02-21T04:47:51.814Z,9.84
2024-02-21T04:48:51.824Z,9.84
2024-02-21T04:49:51.856Z,9.85
2024-02-21T04:50:51.748Z,9.85
2024-02-21T04:51:51.785Z,9.86
2024-02-21T04:52:51.815Z,9.87
2024-02-21T04:53:51.708Z,9.86
2024-02-21T04:54:51.713Z,9.88
2024-02-21T04:55:51.707Z,9.86
2024-02-21T04:56:53.735Z,9.87
2024-02-21T04:57:51.721Z,9.89
2024-02-21T04:58:51.761Z,9.88
2024-02-21T04:59:51.648Z,9.87
2024-02-21T05:00:51.670Z,9.87
2024-02-21T05:01:51.650Z,9.88
2024-02-21T05:02:51.653Z,9.87
2024-02-21T05:03:51.603Z,9.89
2024-02-21T05:04:51.685Z,9.89
2024-02-21T05:05:51.837Z,9.89
2024-02-21T05:06:51.643Z,9.88
2024-02-21T05:07:51.580Z,9.89
2024-02-21T05:08:51.564Z,9.88
2024-02-21T05:09:51.574Z,9.87
2024-02-21T05:10:51.585Z,9.88
2024-02-21T05:11:51.545Z,9.89
2024-02-21T05:12:51.500Z,9.89
2024-02-21T05:13:51.556Z,9.88
2024-02-21T05:14:51.478Z,9.88
2024-02-21T05:15:51.561Z,9.88
2024-02-21T05:16:51.603Z,9.89
2024-02-21T05:17:51.523Z,9.88
2024-02-21T05:18:51.575Z,9.89
2024-02-21T05:19:51.543Z,9.91
2024-02-21T05:20:51.586Z,9.89
2024-02-21T05:21:51.458Z,9.91
2024-02-21T05:22:51.440Z,9.90
2024-02-21T05:23:51.387Z,9.92
2024-02-21T05:24:52.175Z,9.91
2024-02-21T05:25:51.593Z,9.91
2024-02-21T05:26:51.365Z,9.89
2024-02-21T05:27:51.375Z,9.91
2024-02-21T05:28:51.431Z,9.88
2024-02-21T05:29:51.336Z,9.87
2024-02-21T05:30:51.341Z,9.87
2024-02-21T05:31:51.341Z,9.88
2024-02-21T05:32:51.319Z,9.86
2024-02-21T05:33:51.396Z,9.86
2024-02-21T05:34:51.654Z,9.85
2024-02-21T05:35:51.258Z,9.84
2024-02-21T05:36:51.259Z,9.81
2024-02-21T05:37:51.371Z,9.81
2024-02-21T05:38:51.254Z,9.83
2024-02-21T05:39:51.265Z,9.81
2024-02-21T05:40:51.250Z,9.82
2024-02-21T05:41:51.213Z,9.81
2024-02-21T05:42:51.192Z,9.80
2024-02-21T05:43:51.202Z,9.81
2024-02-21T05:44:51.188Z,9.80
2024-02-21T05:45:51.197Z,9.81
2024-02-21T05:46:51.235Z,9.79
2024-02-21T05:47:51.243Z,9.79
2024-02-21T05:48:51.159Z,9.80
2024-02-21T05:49:51.148Z,9.79
2024-02-21T05:50:51.127Z,9.78
2024-02-21T05:51:51.125Z,9.77
2024-02-21T05:52:51.139Z,9.78
2024-02-21T05:53:51.080Z,9.77
2024-02-21T05:54:51.262Z,9.77
2024-02-21T05:55:51.097Z,9.75
2024-02-21T05:56:51.052Z,9.76
2024-02-21T05:57:51.077Z,9.74
2024-02-21T05:58:51.079Z,9.76
2024-02-21T05:59:51.007Z,9.74
2024-02-21T06:00:51.090Z,9.75
2024-02-21T06:01:51.063Z,9.73
2024-02-21T06:02:51.003Z,9.73
2024-02-21T06:03:51.084Z,9.72
2024-02-21T06:04:50.995Z,9.71
2024-02-21T06:05:50.964Z,9.72
2024-02-21T06:06:50.994Z,9.70
2024-02-21T06:07:50.940Z,9.69
2024-02-21T06:08:50.954Z,9.71
2024-02-21T06:09:50.952Z,9.69
2024-02-21T06:10:51.030Z,9.69
2024-02-21T06:11:50.930Z,9.71
2024-02-21T06:12:50.902Z,9.71
2024-02-21T06:13:50.936Z,9.70
2024-02-21T06:14:50.883Z,9.71
2024-02-21T06:15:50.853Z,9.70
2024-02-21T06:16:50.948Z,9.70
2024-02-21T06:17:50.835Z,9.67
2024-02-21T06:18:50.928Z,9.68
2024-02-21T06:19:50.821Z,9.66
2024-02-21T06:20:50.831Z,9.67
2024-02-21T06:21:50.778Z,9.68
2024-02-21T06:22:50.859Z,9.67
2024-02-21T06:23:50.771Z,9.68
2024-02-21T06:24:50.747Z,9.68
2024-02-21T06:25:50.780Z,9.67
2024-02-21T06:26:50.790Z,9.66
2024-02-21T06:27:50.713Z,9.66
2024-02-21T06:28:50.784Z,9.66
2024-02-21T06:29:50.713Z,9.66
2024-02-21T06:30:50.688Z,9.65
2024-02-21T06:31:50.734Z,9.65
2024-02-21T06:32:50.781Z,9.65
2024-02-21T06:33:50.761Z,9.63
2024-02-21T06:34:50.687Z,9.64
2024-02-21T06:35:50.628Z,9.64
2024-02-21T06:36:50.638Z,9.63
2024-02-21T06:37:50.667Z,9.63
2024-02-21T06:38:50.735Z,9.64
2024-02-21T06:39:50.756Z,9.64
2024-02-21T06:40:50.692Z,9.65
2024-02-21T06:41:50.593Z,9.66
2024-02-21T06:42:50.575Z,9.65
2024-02-21T06:43:50.606Z,9.65
2024-02-21T06:44:50.554Z,9.67
2024-02-21T06:45:50.533Z,9.65
2024-02-21T06:46:50.555Z,9.66
2024-02-21T06:47:50.610Z,9.68
2024-02-21T06:48:50.588Z,9.67
2024-02-21T06:49:50.557Z,9.68
2024-02-21T06:50:50.488Z,9.68
2024-02-21T06:51:50.558Z,9.68
2024-02-21T06:52:50.727Z,9.69
2024-02-21T06:53:50.453Z,9.72
2024-02-21T06:54:50.438Z,9.72
2024-02-21T06:55:50.473Z,9.73
2024-02-21T06:56:50.416Z,9.75
2024-02-21T06:57:50.412Z,9.75
2024-02-21T06:58:50.415Z,9.76
2024-02-21T06:59:50.394Z,9.78
2024-02-21T07:00:50.381Z,9.78
2024-02-21T07:01:50.916Z,9.79
2024-02-21T07:02:50.413Z,9.81
2024-02-21T07:03:50.346Z,9.82
2024-02-21T07:04:50.439Z,9.82
2024-02-21T07:05:50.464Z,9.83
2024-02-21T07:06:50.574Z,9.85
2024-02-21T07:07:50.477Z,9.86
2024-02-21T07:08:50.290Z,9.88
2024-02-21T07:09:50.283Z,9.87
2024-02-21T07:10:50.345Z,9.90
2024-02-21T07:11:50.293Z,9.90
2024-02-21T07:12:50.278Z,9.91
2024-02-21T07:13:50.239Z,9.93
2024-02-21T07:14:50.219Z,9.94
2024-02-21T07:15:50.262Z,9.97
2024-02-21T07:16:50.337Z,9.98
2024-02-21T07:17:50.225Z,10.01
2024-02-21T07:18:50.290Z,10.02
2024-02-21T07:19:50.194Z,10.03
2024-02-21T07:20:50.164Z,10.04
2024-02-21T07:21:50.157Z,10.06
2024-02-21T07:22:50.213Z,10.10
2024-02-21T07:23:50.142Z,10.09
2024-02-21T07:24:50.143Z,10.10
2024-02-21T07:25:50.214Z,10.12
2024-02-21T07:26:50.131Z,10.15
2024-02-21T07:27:50.098Z,10.16
2024-02-21T07:28:50.145Z,10.18
2024-02-21T07:29:50.117Z,10.20
2024-02-21T07:30:50.103Z,10.24
2024-02-21T07:31:50.371Z,10.25
2024-02-21T07:32:50.077Z,10.27
2024-02-21T07:33:50.056Z,10.30
2024-02-21T07:34:50.225Z,10.32
2024-02-21T07:35:50.087Z,10.33
2024-02-21T07:36:49.983Z,10.36
2024-02-21T07:37:50.033Z,10.38
2024-02-21T07:38:49.991Z,10.38
2024-02-21T07:39:49.958Z,10.40
2024-02-21T07:40:50.049Z,10.44
2024-02-21T07:41:49.993Z,10.44
2024-02-21T07:42:51.902Z,10.46
2024-02-21T07:43:50.001Z,10.48
2024-02-21T07:44:49.937Z,10.50
2024-02-21T07:45:49.904Z,10.51
2024-02-21T07:46:49.954Z,10.55
2024-02-21T07:47:49.931Z,10.56
2024-02-21T07:48:49.902Z,10.60
2024-02-21T07:49:49.947Z,10.62
2024-02-21T07:50:49.871Z,10.65
2024-02-21T07:51:49.849Z,10.65
2024-02-21T07:52:49.867Z,10.68
2024-02-21T07:53:49.904Z,10.70
2024-02-21T07:54:49.841Z,10.71
2024-02-21T07:55:49.863Z,10.73
2024-02-21T07:56:49.796Z,10.75
2024-02-21T07:57:49.778Z,10.78
2024-02-21T07:58:49.802Z,10.81
2024-02-21T07:59:49.797Z,10.82
2024-02-21T08:00:49.793Z,10.84
2024-02-21T08:01:49.757Z,10.85
2024-02-21T08:02:49.743Z,10.87
2024-02-21T08:03:49.756Z,10.93
2024-02-21T08:04:49.758Z,10.95
2024-02-21T08:05:49.805Z,10.96
2024-02-21T08:06:49.790Z,11.00
2024-02-21T08:07:49.790Z,11.02
2024-02-21T08:08:49.676Z,11.04
2024-02-21T08:09:49.641Z,11.06
2024-02-21T08:10:49.667Z,11.07
2024-02-21T08:11:49.698Z,11.10
2024-02-21T08:12:49.617Z,11.12
2024-02-21T08:13:49.627Z,11.13
2024-02-21T08:14:49.604Z,11.15
2024-02-21T08:15:49.606Z,11.15
2024-02-21T08:16:49.737Z,11.18
2024-02-21T08:17:49.625Z,11.20
2024-02-21T08:18:49.604Z,11.22
2024-02-21T08:19:49.564Z,11.25
2024-02-21T08:20:49.535Z,11.29
2024-02-21T08:21:49.545Z,11.36
2024-02-21T08:22:49.549Z,11.44
2024-02-21T08:23:49.529Z,11.46
2024-02-21T08:24:49.481Z,11.53
2024-02-21T08:25:49.525Z,11.58
2024-02-21T08:26:49.500Z,11.63
2024-02-21T08:27:49.457Z,11.68
2024-02-21T08:28:49.499Z,11.74
2024-02-21T08:29:49.481Z,11.77
2024-02-21T08:30:49.740Z,11.83
2024-02-21T08:31:49.472Z,11.88
2024-02-21T08:32:49.443Z,11.91
2024-02-21T08:33:49.566Z,11.94
2024-02-21T08:34:49.453Z,11.96
2024-02-21T08:35:49.404Z,12.00
2024-02-21T08:36:49.373Z,12.05
2024-02-21T08:37:49.487Z,12.09
2024-02-21T08:38:49.366Z,12.16
2024-02-21T08:39:49.337Z,12.18
2024-02-21T08:40:49.409Z,12.18
2024-02-21T08:41:56.940Z,12.18
2024-02-21T08:42:49.302Z,12.19
2024-02-21T08:43:49.309Z,12.21
2024-02-21T08:44:49.294Z,12.26
2024-02-21T08:45:49.275Z,12.27
2024-02-21T08:46:49.303Z,12.25
2024-02-21T08:47:49.348Z,12.28
2024-02-21T08:48:49.307Z,12.27
2024-02-21T08:49:49.262Z,12.27
2024-02-21T08:50:49.278Z,12.26
2024-02-21T08:51:49.349Z,12.27
2024-02-21T08:52:49.264Z,12.28
2024-02-21T08:53:49.206Z,12.28
2024-02-21T08:54:49.163Z,12.31
2024-02-21T08:55:49.194Z,12.34
2024-02-21T08:56:49.161Z,12.37
2024-02-21T08:57:49.156Z,12.41
2024-02-21T08:58:49.189Z,12.42
2024-02-21T08:59:49.145Z,12.46
2024-02-21T09:00:49.119Z,12.49
2024-02-21T09:01:49.162Z,12.55
2024-02-21T09:02:49.075Z,12.58
2024-02-21T09:03:49.072Z,12.63
2024-02-21T09:04:49.175Z,12.66
2024-02-21T09:05:49.101Z,12.68
2024-02-21T09:06:49.099Z,12.70
2024-02-21T09:07:49.119Z,12.66
2024-02-21T09:08:49.016Z,12.70
2024-02-21T09:09:49.011Z,12.72
2024-02-21T09:10:49.139Z,12.74
2024-02-21T09:11:48.996Z,12.77
2024-02-21T09:12:48.986Z,12.81
2024-02-21T09:13:49.033Z,12.79
2024-02-21T09:14:48.954Z,12.78
2024-02-21T09:15:48.938Z,12.80
2024-02-21T09:16:49.046Z,12.82
2024-02-21T09:17:49.020Z,12.84
2024-02-21T09:18:49.024Z,12.88
2024-02-21T09:19:48.974Z,12.93
2024-02-21T09:20:48.958Z,12.99
2024-02-21T09:21:48.888Z,13.05
2024-02-21T09:22:48.952Z,13.10
2024-02-21T09:23:48.899Z,13.14
2024-02-21T09:24:48.840Z,13.19
2024-02-21T09:25:48.958Z,13.23
2024-02-21T09:26:48.854Z,13.27
2024-02-21T09:27:48.824Z,13.32
2024-02-21T09:28:48.951Z,13.35
2024-02-21T09:29:49.051Z,13.39
2024-02-21T09:30:48.777Z,13.42
2024-02-21T09:31:48.848Z,13.45
2024-02-21T09:32:48.832Z,13.50
2024-02-21T09:33:48.850Z,13.54
2024-02-21T09:34:48.963Z,13.56
2024-02-21T09:35:48.774Z,13.57
2024-02-21T09:36:48.755Z,13.60
2024-02-21T09:37:48.789Z,13.61
2024-02-21T09:38:48.704Z,13.61
2024-02-21T09:39:48.707Z,13.61
2024-02-21T09:40:48.805Z,13.60
2024-02-21T09:41:48.678Z,13.59
2024-02-21T09:42:48.662Z,13.58
2024-02-21T09:43:48.682Z,13.59
2024-02-21T09:44:48.653Z,13.58
2024-02-21T09:45:48.639Z,13.57
2024-02-21T09:46:48.729Z,13.58
2024-02-21T09:47:48.726Z,13.58
2024-02-21T09:48:48.617Z,13.59
2024-02-21T09:49:48.747Z,13.57
2024-02-21T09:50:48.591Z,13.58
2024-02-21T09:51:48.563Z,13.59
2024-02-21T09:52:48.590Z,13.59
2024-02-21T09:53:55.244Z,13.62
2024-02-21T09:54:48.544Z,13.59
2024-02-21T09:55:48.531Z,13.58
2024-02-21T09:56:48.532Z,13.57
2024-02-21T09:57:48.498Z,13.59
2024-02-21T09:58:48.557Z,13.60
2024-02-21T09:59:48.544Z,13.63
2024-02-21T10:00:48.508Z,13.62
2024-02-21T10:01:48.801Z,13.63
2024-02-21T10:02:48.523Z,13.61
2024-02-21T10:03:48.481Z,13.63
2024-02-21T10:04:48.510Z,13.63
2024-02-21T10:05:48.480Z,13.64
2024-02-21T10:06:48.398Z,13.64
2024-02-21T10:07:48.453Z,13.67
2024-02-21T10:08:48.401Z,13.65
2024-02-21T10:09:48.455Z,13.68
2024-02-21T10:10:48.430Z,13.67
2024-02-21T10:11:48.394Z,13.68
2024-02-21T10:12:48.342Z,13.73
2024-02-21T10:13:48.389Z,13.74
2024-02-21T10:14:48.394Z,13.78
2024-02-21T10:15:48.371Z,13.81
2024-02-21T10:16:48.334Z,13.85
2024-02-21T10:17:48.296Z,13.89
2024-02-21T10:18:48.334Z,13.91
2024-02-21T10:19:48.315Z,13.93
2024-02-21T10:20:48.261Z,13.92
2024-02-21T10:21:48.279Z,13.91
2024-02-21T10:22:48.301Z,13.94
2024-02-21T10:23:48.252Z,13.97
2024-02-21T10:24:48.242Z,14.00
2024-02-21T10:25:48.239Z,14.04
2024-02-21T10:26:48.201Z,14.05
2024-02-21T10:27:48.214Z,14.09
2024-02-21T10:28:48.263Z,14.11
2024-02-21T10:29:48.181Z,14.14
2024-02-21T10:30:48.148Z,14.15
2024-02-21T10:31:48.214Z,14.17
2024-02-21T10:32:48.198Z,14.16
2024-02-21T10:33:48.221Z,14.18
2024-02-21T10:34:48.172Z,14.20
2024-02-21T10:35:48.128Z,14.20
2024-02-21T10:36:48.100Z,14.22
2024-02-21T10:37:48.095Z,14.20
2024-02-21T10:38:48.074Z,14.20
2024-02-21T10:39:48.136Z,14.20
2024-02-21T10:40:48.104Z,14.20
2024-02-21T10:41:48.031Z,14.20
2024-02-21T10:42:48.039Z,14.22
2024-02-21T10:43:48.102Z,14.22
2024-02-21T10:44:47.996Z,14.21
2024-02-21T10:45:48.054Z,14.22
2024-02-21T10:46:48.014Z,14.21
2024-02-21T10:47:48.030Z,14.20
2024-02-21T10:48:48.005Z,14.23
2024-02-21T10:49:47.984Z,14.22
2024-02-21T10:50:47.941Z,14.21
2024-02-21T10:51:48.008Z,14.22
2024-02-21T10:52:48.034Z,14.22
2024-02-21T10:53:48.017Z,14.21
2024-02-21T10:54:47.894Z,14.21
2024-02-21T10:55:47.989Z,14.20
2024-02-21T10:56:47.881Z,14.17
2024-02-21T10:57:47.893Z,14.18
2024-02-21T10:58:47.935Z,14.18
2024-02-21T10:59:47.851Z,14.19
2024-02-21T11:00:47.904Z,14.20
2024-02-21T11:01:47.968Z,14.22
2024-02-21T11:02:47.871Z,14.22
2024-02-21T11:03:47.933Z,14.23
2024-02-21T11:04:47.942Z,14.23
2024-02-21T11:05:47.859Z,14.23
2024-02-21T11:06:47.850Z,14.23
2024-02-21T11:07:47.787Z,14.23
2024-02-21T11:08:47.745Z,14.24
2024-02-21T11:09:47.756Z,14.24
2024-02-21T11:10:47.789Z,14.24
2024-02-21T11:11:47.756Z,14.28
2024-02-21T11:12:47.719Z,14.26
2024-02-21T11:13:47.809Z,14.29
2024-02-21T11:14:47.704Z,14.28
2024-02-21T11:15:47.695Z,14.28
2024-02-21T11:16:47.734Z,14.28
2024-02-21T11:17:50.826Z,14.29
2024-02-21T11:18:47.724Z,14.30
2024-02-21T11:19:47.793Z,14.33
2024-02-21T11:20:47.661Z,14.36
2024-02-21T11:21:47.642Z,14.38
2024-02-21T11:22:47.949Z,14.40
2024-02-21T11:23:47.591Z,14.41
2024-02-21T11:24:47.637Z,14.42
2024-02-21T11:25:47.617Z,14.43
2024-02-21T11:26:47.566Z,14.46
2024-02-21T11:27:47.678Z,14.49
2024-02-21T11:28:47.549Z,14.52
2024-02-21T11:29:47.621Z,14.54
2024-02-21T11:30:47.528Z,14.56
2024-02-21T11:31:47.509Z,14.58
2024-02-21T11:32:47.527Z,14.59
2024-02-21T11:33:47.531Z,14.61
2024-02-21T11:34:47.639Z,14.63
2024-02-21T11:35:47.538Z,14.66
2024-02-21T11:36:47.469Z,14.69
2024-02-21T11:37:47.512Z,14.70
2024-02-21T11:38:47.447Z,14.72
2024-02-21T11:39:47.449Z,14.72
2024-02-21T11:40:47.577Z,14.72
2024-02-21T11:41:47.401Z,14.74
2024-02-21T11:42:47.379Z,14.77
2024-02-21T11:43:47.382Z,14.77
2024-02-21T11:44:47.416Z,14.77
2024-02-21T11:45:47.386Z,14.75
2024-02-21T11:46:47.381Z,14.70
2024-02-21T11:47:47.362Z,14.66
2024-02-21T11:48:47.335Z,14.63
2024-02-21T11:49:47.371Z,14.61
2024-02-21T11:50:47.293Z,14.60
2024-02-21T11:51:47.338Z,14.59
2024-02-21T11:52:47.360Z,14.61
2024-02-21T11:53:55.084Z,14.63
2024-02-21T11:54:47.269Z,14.64
2024-02-21T11:55:47.281Z,14.62
2024-02-21T11:56:47.245Z,14.62
2024-02-21T11:57:47.243Z,14.62
2024-02-21T11:58:47.247Z,14.66
2024-02-21T11:59:47.218Z,14.67
2024-02-21T12:00:47.217Z,14.69
2024-02-21T12:01:47.217Z,14.71
2024-02-21T12:02:47.383Z,14.72
2024-02-21T12:03:47.175Z,14.70
2024-02-21T12:04:47.370Z,14.73
2024-02-21T12:05:47.174Z,14.70
2024-02-21T12:06:47.171Z,14.70
2024-02-21T12:07:47.201Z,14.69
2024-02-21T12:08:47.106Z,14.71
2024-02-21T12:09:47.128Z,14.69
2024-02-21T12:10:47.159Z,14.70
2024-02-21T12:11:47.108Z,14.69
2024-02-21T12:12:47.066Z,14.68
2024-02-21T12:13:47.161Z,14.67
2024-02-21T12:14:47.048Z,14.67
2024-02-21T12:15:47.038Z,14.70
2024-02-21T12:16:47.071Z,14.73
2024-02-21T12:17:47.068Z,14.74
2024-02-21T12:18:47.089Z,14.75
2024-02-21T12:19:47.054Z,14.73
2024-02-21T12:20:46.980Z,14.75
2024-02-21T12:21:46.961Z,14.74
2024-02-21T12:22:47.038Z,14.75
2024-02-21T12:23:46.955Z,14.77
2024-02-21T12:24:46.956Z,14.78
2024-02-21T12:25:46.975Z,14.82
2024-02-21T12:26:46.912Z,14.82
2024-02-21T12:27:46.916Z,14.83
2024-02-21T12:28:46.959Z,14.82
2024-02-21T12:29:46.887Z,14.77
2024-02-21T12:30:46.943Z,14.74
2024-02-21T12:31:47.978Z,14.71
2024-02-21T12:32:46.885Z,14.67
2024-02-21T12:33:46.935Z,14.64
2024-02-21T12:34:53.612Z,14.65
2024-02-21T12:35:46.863Z,14.60
2024-02-21T12:36:46.832Z,14.58
2024-02-21T12:37:46.875Z,14.56
2024-02-21T12:38:46.790Z,14.56
2024-02-21T12:39:46.840Z,14.55
2024-02-21T12:40:46.834Z,14.54
2024-02-21T12:41:46.765Z,14.53
2024-02-21T12:42:46.942Z,14.51
2024-02-21T12:43:46.908Z,14.50
2024-02-21T12:44:46.853Z,14.51
2024-02-21T12:45:46.719Z,14.51
2024-02-21T12:46:46.767Z,14.53
2024-02-21T12:47:46.710Z,14.53
2024-02-21T12:48:46.709Z,14.55
2024-02-21T12:49:46.958Z,14.58
2024-02-21T12:50:46.726Z,14.64
2024-02-21T12:51:46.682Z,14.68
2024-02-21T12:52:46.776Z,14.72
2024-02-21T12:53:46.647Z,14.73
2024-02-21T12:54:46.619Z,14.77
2024-02-21T12:55:46.682Z,14.80
2024-02-21T12:56:46.610Z,14.81
2024-02-21T12:57:46.586Z,14.83
2024-02-21T12:58:46.599Z,14.88
2024-02-21T12:59:46.603Z,14.93
2024-02-21T13:00:46.627Z,14.98
2024-02-21T13:01:46.660Z,15.00
2024-02-21T13:02:46.556Z,15.02